createdAt,value
2018-08-17T00:00:23.120Z,19.98
2018-08-17T00:02:53.236Z,19.95
2018-08-17T00:05:22.993Z,19.90
2018-08-17T00:07:51.829Z,19.87
2018-08-17T00:10:20.687Z,19.83
2018-08-17T00:12:49.603Z,19.79
2018-08-17T00:15:19.059Z,19.76
2018-08-17T00:17:48.257Z,19.71
2018-08-17T00:20:17.330Z,19.71
2018-08-17T00:22:47.123Z,19.68
2018-08-17T00:25:16.127Z,19.66
2018-08-17T00:27:44.945Z,19.61
2018-08-17T00:30:13.789Z,19.58
2018-08-17T00:32:42.554Z,19.54
2018-08-17T00:35:11.452Z,19.52
2018-08-17T00:37:40.255Z,19.51
2018-08-17T00:40:09.052Z,19.52
2018-08-17T00:42:37.835Z,19.52
2018-08-17T00:45:07.926Z,19.49
2018-08-17T00:47:38.279Z,19.46
2018-08-17T00:50:07.725Z,19.44
2018-08-17T00:52:36.986Z,19.41
2018-08-17T00:55:06.012Z,19.40
2018-08-17T00:57:35.992Z,19.39
2018-08-17T01:00:06.018Z,19.35
2018-08-17T01:03:39.281Z,19.33
2018-08-17T01:06:08.152Z,19.30
2018-08-17T01:08:36.942Z,19.29
2018-08-17T01:11:05.882Z,19.28
2018-08-17T01:13:35.309Z,19.26
2018-08-17T01:16:04.091Z,19.26
2018-08-17T01:18:33.225Z,19.26
2018-08-17T01:21:01.980Z,19.27
2018-08-17T01:23:31.200Z,19.27
2018-08-17T01:25:59.992Z,19.25
2018-08-17T01:28:28.701Z,19.26
2018-08-17T01:30:57.519Z,19.23
2018-08-17T01:33:26.419Z,19.20
2018-08-17T01:35:55.275Z,19.16
2018-08-17T01:38:24.268Z,19.12
2018-08-17T01:40:52.986Z,19.08
2018-08-17T01:43:21.999Z,19.04
2018-08-17T01:45:51.260Z,19.03
2018-08-17T01:48:20.564Z,19.01
2018-08-17T01:50:50.256Z,18.98
2018-08-17T01:53:20.302Z,18.95
2018-08-17T01:55:49.860Z,18.92
2018-08-17T01:58:20.273Z,18.89
2018-08-17T02:00:49.951Z,18.85
2018-08-17T02:03:20.102Z,18.84
2018-08-17T02:05:49.156Z,18.85
2018-08-17T02:08:18.868Z,18.83
2018-08-17T02:10:47.887Z,18.82
2018-08-17T02:13:17.113Z,18.81
2018-08-17T02:15:46.081Z,18.79
2018-08-17T02:18:14.901Z,18.75
2018-08-17T02:20:43.618Z,18.75
2018-08-17T02:23:13.309Z,18.74
2018-08-17T02:25:42.072Z,18.72
2018-08-17T02:28:10.894Z,18.71
2018-08-17T02:30:39.768Z,18.71
2018-08-17T02:33:08.687Z,18.72
2018-08-17T02:35:37.615Z,18.72
2018-08-17T02:38:06.515Z,18.69
2018-08-17T02:40:35.317Z,18.69
2018-08-17T02:43:04.142Z,18.65
2018-08-17T02:45:33.691Z,18.63
2018-08-17T02:48:03.195Z,18.63
2018-08-17T02:50:31.945Z,18.59
2018-08-17T02:53:01.341Z,18.58
2018-08-17T02:55:30.083Z,18.53
2018-08-17T02:57:59.331Z,18.51
2018-08-17T03:00:28.092Z,18.49
2018-08-17T03:02:57.416Z,18.51
2018-08-17T03:05:26.279Z,18.48
2018-08-17T03:07:55.044Z,18.46
2018-08-17T03:10:23.855Z,18.46
2018-08-17T03:12:52.658Z,18.45
2018-08-17T03:15:22.103Z,18.43
2018-08-17T03:17:50.859Z,18.40
2018-08-17T03:20:19.683Z,18.38
2018-08-17T03:22:48.799Z,18.38
2018-08-17T03:25:17.782Z,18.37
2018-08-17T03:27:46.892Z,18.37
2018-08-17T03:30:16.321Z,18.39
2018-08-17T03:32:45.090Z,18.41
2018-08-17T03:35:14.480Z,18.44
2018-08-17T03:37:43.260Z,18.50
2018-08-17T03:40:12.061Z,18.54
2018-08-17T03:42:40.886Z,18.58
2018-08-17T03:45:10.457Z,18.58
2018-08-17T03:47:39.585Z,18.62
2018-08-17T03:50:09.715Z,18.66
2018-08-17T03:52:38.936Z,18.70
2018-08-17T03:55:07.735Z,18.77
2018-08-17T03:57:37.052Z,18.82
2018-08-17T04:00:06.464Z,18.84
2018-08-17T04:02:35.703Z,18.88
2018-08-17T04:05:05.429Z,18.92
2018-08-17T04:07:34.638Z,18.97
2018-08-17T04:10:03.953Z,18.99
2018-08-17T04:12:32.715Z,19.02
2018-08-17T04:15:01.490Z,19.06
2018-08-17T04:17:30.630Z,19.11
2018-08-17T04:19:59.498Z,19.11
2018-08-17T04:22:28.304Z,19.12
2018-08-17T04:24:57.061Z,19.15
2018-08-17T04:27:25.839Z,19.19
2018-08-17T04:29:54.638Z,19.22
2018-08-17T04:32:23.646Z,19.27
2018-08-17T04:34:53.576Z,19.31
2018-08-17T04:37:22.484Z,19.32
2018-08-17T04:39:51.314Z,19.38
2018-08-17T04:42:20.153Z,19.42
2018-08-17T04:44:49.287Z,19.49
2018-08-17T04:47:19.624Z,19.50
2018-08-17T04:49:49.232Z,19.51
2018-08-17T04:52:18.912Z,19.53
2018-08-17T04:54:47.994Z,19.55
2018-08-17T04:57:18.232Z,19.60
2018-08-17T04:59:47.663Z,19.62
2018-08-17T05:02:18.010Z,19.66
2018-08-17T05:04:48.361Z,19.69
2018-08-17T05:07:17.336Z,19.73
2018-08-17T05:09:46.356Z,19.76
2018-08-17T05:12:15.160Z,19.75
2018-08-17T05:14:43.951Z,19.79
2018-08-17T05:17:12.827Z,19.82
2018-08-17T05:19:41.653Z,19.83
2018-08-17T05:22:10.468Z,19.89
2018-08-17T05:24:39.360Z,19.96
2018-08-17T05:27:08.191Z,19.99
2018-08-17T05:29:37.331Z,20.04
2018-08-17T05:32:06.555Z,20.06
2018-08-17T05:34:35.343Z,20.11
2018-08-17T05:37:04.894Z,20.15
2018-08-17T05:39:33.619Z,20.22
2018-08-17T05:42:02.507Z,20.29
2018-08-17T05:44:31.936Z,20.45
2018-08-17T05:47:01.478Z,20.50
2018-08-17T05:49:30.928Z,20.53
2018-08-17T05:52:01.154Z,20.66
2018-08-17T05:54:29.887Z,20.76
2018-08-17T05:56:59.170Z,20.89
2018-08-17T05:59:27.896Z,21.03
2018-08-17T06:01:57.899Z,21.13
2018-08-17T06:04:27.187Z,21.24
2018-08-17T06:06:56.477Z,21.35
2018-08-17T06:09:26.171Z,21.47
2018-08-17T06:11:54.951Z,21.62
2018-08-17T06:14:23.692Z,21.82
2018-08-17T06:16:52.491Z,21.97
2018-08-17T06:19:21.383Z,22.09
2018-08-17T06:21:50.219Z,22.21
2018-08-17T06:24:19.960Z,22.32
2018-08-17T06:26:51.514Z,22.38
2018-08-17T06:29:20.273Z,22.46
2018-08-17T06:31:49.549Z,22.51
2018-08-17T06:34:18.651Z,22.60
2018-08-17T06:36:49.545Z,22.69
2018-08-17T06:39:18.782Z,22.83
2018-08-17T06:41:48.562Z,22.97
2018-08-17T06:44:17.729Z,23.08
2018-08-17T06:46:47.607Z,23.15
2018-08-17T06:49:16.941Z,23.19
2018-08-17T06:51:46.779Z,23.25
2018-08-17T06:54:16.900Z,23.28
2018-08-17T06:56:46.895Z,23.37
2018-08-17T06:59:15.763Z,23.44
2018-08-17T07:01:44.951Z,23.47
2018-08-17T07:04:14.665Z,23.54
2018-08-17T07:06:43.454Z,23.61
2018-08-17T07:09:12.402Z,23.66
2018-08-17T07:11:41.683Z,23.71
2018-08-17T07:14:11.282Z,23.84
2018-08-17T07:16:40.737Z,23.95
2018-08-17T07:19:09.470Z,24.06
2018-08-17T07:21:38.280Z,24.09
2018-08-17T07:24:06.971Z,24.18
2018-08-17T07:26:35.788Z,24.24
2018-08-17T07:29:04.940Z,24.35
2018-08-17T07:31:33.727Z,24.46
2018-08-17T07:34:02.559Z,24.55
2018-08-17T07:36:31.939Z,24.65
2018-08-17T07:39:00.671Z,24.70
2018-08-17T07:41:29.462Z,24.77
2018-08-17T07:43:58.190Z,24.87
2018-08-17T07:46:26.953Z,24.95
2018-08-17T07:48:56.454Z,25.04
2018-08-17T07:51:25.873Z,25.14
2018-08-17T07:53:55.094Z,25.23
2018-08-17T07:56:24.351Z,25.30
2018-08-17T07:58:53.107Z,25.36
2018-08-17T08:01:22.488Z,25.46
2018-08-17T08:03:51.800Z,25.50
2018-08-17T08:06:20.588Z,25.53
2018-08-17T08:08:49.419Z,25.67
2018-08-17T08:11:18.643Z,25.77
2018-08-17T08:13:48.512Z,25.86
2018-08-17T08:16:17.653Z,25.97
2018-08-17T08:18:46.800Z,26.10
2018-08-17T08:21:15.567Z,26.23
2018-08-17T08:23:44.340Z,26.31
2018-08-17T08:26:13.221Z,26.45
2018-08-17T08:28:42.335Z,26.56
2018-08-17T08:31:11.123Z,26.61
2018-08-17T08:33:39.947Z,26.67
2018-08-17T08:36:09.383Z,26.65
2018-08-17T08:38:38.103Z,26.70
2018-08-17T08:41:06.982Z,26.70
2018-08-17T08:43:35.762Z,26.77
2018-08-17T08:46:04.596Z,26.85
2018-08-17T08:48:33.939Z,26.98
2018-08-17T08:51:03.311Z,27.05
2018-08-17T08:53:32.951Z,27.03
2018-08-17T08:56:02.310Z,27.09
2018-08-17T08:58:31.116Z,27.23
2018-08-17T09:01:00.734Z,27.40
2018-08-17T09:03:30.018Z,27.73
2018-08-17T09:05:58.823Z,27.87
2018-08-17T09:08:27.747Z,28.00
2018-08-17T09:10:56.535Z,28.12
2018-08-17T09:13:25.269Z,28.26
2018-08-17T09:15:54.321Z,28.26
2018-08-17T09:18:23.091Z,28.31
2018-08-17T09:20:51.815Z,28.35
2018-08-17T09:23:20.526Z,28.42
2018-08-17T09:25:49.261Z,28.43
2018-08-17T09:28:18.483Z,28.42
2018-08-17T09:30:48.056Z,28.44
2018-08-17T09:33:17.088Z,28.44
2018-08-17T09:35:46.777Z,28.51
2018-08-17T09:38:15.676Z,28.49
2018-08-17T09:40:44.603Z,28.55
2018-08-17T09:43:13.415Z,28.62
2018-08-17T09:45:42.173Z,28.79
2018-08-17T09:48:11.509Z,28.92
2018-08-17T09:50:40.880Z,28.97
2018-08-17T09:54:13.027Z,29.00
2018-08-17T09:56:42.308Z,28.90
2018-08-17T09:59:11.143Z,28.62
2018-08-17T10:01:45.653Z,28.37
2018-08-17T10:04:20.152Z,28.24
2018-08-17T10:06:54.181Z,28.07
2018-08-17T10:09:28.139Z,28.00
2018-08-17T10:11:57.003Z,27.81
2018-08-17T10:14:25.856Z,27.60
2018-08-17T10:16:54.637Z,27.48
2018-08-17T10:19:23.335Z,27.45
2018-08-17T10:21:53.138Z,27.46
2018-08-17T10:24:22.119Z,27.43
2018-08-17T10:26:52.159Z,27.46
2018-08-17T10:29:21.699Z,27.49
2018-08-17T10:31:51.563Z,27.63
2018-08-17T10:34:20.599Z,27.60
2018-08-17T10:36:49.898Z,27.46
2018-08-17T10:39:18.791Z,27.32
2018-08-17T10:41:47.716Z,27.13
2018-08-17T10:44:17.726Z,26.87
2018-08-17T10:46:47.820Z,26.69
2018-08-17T10:49:16.811Z,26.68
2018-08-17T10:51:46.293Z,26.79
2018-08-17T10:54:15.604Z,27.00
2018-08-17T10:56:45.136Z,27.15
2018-08-17T10:59:14.139Z,27.34
2018-08-17T11:01:44.640Z,27.55
2018-08-17T11:04:13.984Z,27.74
2018-08-17T11:06:42.695Z,27.87
2018-08-17T11:09:11.931Z,28.05
2018-08-17T11:11:42.304Z,28.24
2018-08-17T11:14:11.015Z,28.43
2018-08-17T11:16:39.858Z,28.61
2018-08-17T11:19:08.669Z,28.71
2018-08-17T11:21:37.372Z,28.94
2018-08-17T11:24:06.142Z,28.97
2018-08-17T11:26:34.996Z,28.99
2018-08-17T11:29:04.207Z,28.83
2018-08-17T11:31:33.359Z,28.53
2018-08-17T11:34:02.195Z,28.44
2018-08-17T11:36:31.439Z,28.25
2018-08-17T11:39:00.209Z,28.08
2018-08-17T11:41:29.161Z,28.06
2018-08-17T11:44:00.909Z,28.11
2018-08-17T11:46:30.476Z,28.18
2018-08-17T11:48:59.211Z,28.18
2018-08-17T11:51:28.626Z,28.29
2018-08-17T11:53:58.401Z,28.23
2018-08-17T11:56:27.710Z,28.33
2018-08-17T11:58:56.459Z,28.25
2018-08-17T12:01:28.786Z,28.06
2018-08-17T12:03:58.176Z,27.91
2018-08-17T12:06:27.068Z,27.77
2018-08-17T12:08:56.256Z,27.66
2018-08-17T12:11:25.012Z,27.56
2018-08-17T12:13:53.815Z,27.41
2018-08-17T12:16:22.620Z,27.40
2018-08-17T12:18:51.402Z,27.33
2018-08-17T12:21:20.115Z,27.34
2018-08-17T12:23:49.015Z,27.64
2018-08-17T12:26:18.010Z,27.83
2018-08-17T12:28:47.424Z,28.08
2018-08-17T12:31:17.143Z,28.20
2018-08-17T12:33:45.952Z,28.34
2018-08-17T12:36:15.349Z,28.42
2018-08-17T12:38:44.256Z,28.54
2018-08-17T12:41:12.987Z,28.59
2018-08-17T12:43:41.756Z,28.55
2018-08-17T12:46:10.570Z,28.56
2018-08-17T12:48:39.806Z,28.58
2018-08-17T12:51:09.049Z,28.49
2018-08-17T12:53:38.167Z,28.35
2018-08-17T12:56:07.902Z,28.27
2018-08-17T12:58:36.671Z,28.16
2018-08-17T13:01:05.951Z,28.13
2018-08-17T13:03:35.125Z,28.05
2018-08-17T13:06:03.903Z,27.95
2018-08-17T13:08:32.639Z,27.89
2018-08-17T13:11:01.904Z,27.85
2018-08-17T13:13:30.680Z,27.81
2018-08-17T13:16:06.864Z,27.82
2018-08-17T13:18:37.400Z,27.77
2018-08-17T13:21:06.579Z,27.77
2018-08-17T13:23:36.146Z,27.68
2018-08-17T13:26:04.984Z,27.59
2018-08-17T13:28:33.727Z,27.48
2018-08-17T13:31:02.853Z,27.48
2018-08-17T13:33:31.607Z,27.45
2018-08-17T13:36:01.204Z,27.44
2018-08-17T13:38:29.974Z,27.52
2018-08-17T13:40:58.722Z,27.57
2018-08-17T13:43:27.559Z,27.54
2018-08-17T13:45:56.319Z,27.57
2018-08-17T13:48:25.891Z,27.63
2018-08-17T13:50:55.263Z,27.57
2018-08-17T13:53:24.720Z,27.62
2018-08-17T13:55:54.880Z,27.56
2018-08-17T13:58:23.675Z,27.44
2018-08-17T14:00:53.043Z,27.31
2018-08-17T14:03:22.359Z,27.28
2018-08-17T14:05:51.143Z,27.16
2018-08-17T14:08:20.004Z,27.07
2018-08-17T14:10:49.051Z,26.91
2018-08-17T14:13:18.140Z,26.74
2018-08-17T14:15:47.349Z,26.68
2018-08-17T14:18:16.511Z,26.61
2018-08-17T14:20:45.245Z,26.50
2018-08-17T14:23:15.275Z,26.29
2018-08-17T14:25:44.111Z,26.07
2018-08-17T14:28:12.867Z,25.90
2018-08-17T14:30:42.219Z,25.80
2018-08-17T14:33:11.001Z,25.74
2018-08-17T14:35:40.304Z,25.56
2018-08-17T14:38:09.077Z,25.49
2018-08-17T14:40:37.808Z,25.38
2018-08-17T14:43:06.575Z,25.29
2018-08-17T14:45:35.311Z,25.15
2018-08-17T14:48:04.912Z,24.98
2018-08-17T14:50:33.641Z,24.83
2018-08-17T14:53:02.932Z,24.71
2018-08-17T14:55:31.656Z,24.61
2018-08-17T14:58:01.815Z,24.54
2018-08-17T15:00:30.574Z,24.49
2018-08-17T15:02:59.942Z,24.48
2018-08-17T15:05:28.708Z,24.40
2018-08-17T15:07:57.489Z,24.32
2018-08-17T15:10:26.286Z,23.99
2018-08-17T15:12:55.371Z,23.77
2018-08-17T15:15:24.268Z,23.54
2018-08-17T15:17:53.113Z,23.25
2018-08-17T15:20:21.839Z,23.01
2018-08-17T15:22:50.668Z,22.79
2018-08-17T15:25:20.215Z,22.58
2018-08-17T15:27:49.749Z,22.37
2018-08-17T15:30:19.536Z,22.18
2018-08-17T15:32:48.663Z,22.35
2018-08-17T15:35:18.808Z,22.69
2018-08-17T15:37:48.151Z,22.63
2018-08-17T15:40:17.064Z,22.39
2018-08-17T15:42:46.004Z,22.14
2018-08-17T15:45:19.640Z,21.88
2018-08-17T15:47:49.720Z,21.74
2018-08-17T15:50:20.126Z,21.61
2018-08-17T15:52:49.676Z,21.47
2018-08-17T15:55:18.892Z,21.35
2018-08-17T15:57:48.907Z,21.28
2018-08-17T16:00:19.870Z,21.24
2018-08-17T16:02:50.627Z,21.25
2018-08-17T16:05:19.444Z,21.21
2018-08-17T16:07:49.104Z,21.07
2018-08-17T16:10:18.188Z,20.97
2018-08-17T16:12:47.234Z,20.87
2018-08-17T16:15:16.316Z,20.83
2018-08-17T16:17:46.394Z,20.80
2018-08-17T16:20:15.260Z,20.77
2018-08-17T16:22:44.600Z,20.75
2018-08-17T16:25:13.922Z,20.69
2018-08-17T16:27:43.319Z,20.66
2018-08-17T16:30:14.473Z,20.66
2018-08-17T16:32:43.669Z,20.70
2018-08-17T16:35:13.962Z,20.70
2018-08-17T16:37:44.701Z,20.72
2018-08-17T16:40:13.551Z,20.76
2018-08-17T16:42:42.385Z,20.81
2018-08-17T16:45:11.351Z,20.88
2018-08-17T16:47:40.795Z,20.97
2018-08-17T16:50:09.867Z,21.04
2018-08-17T16:52:39.254Z,21.14
2018-08-17T16:55:08.023Z,21.23
2018-08-17T16:57:37.637Z,21.32
2018-08-17T17:00:07.990Z,21.40
2018-08-17T17:05:12.710Z,21.46
2018-08-17T17:07:41.527Z,21.41
2018-08-17T17:10:10.729Z,21.29
2018-08-17T17:12:39.583Z,21.23
2018-08-17T17:15:14.958Z,21.23
2018-08-17T17:17:48.358Z,21.24
2018-08-17T17:20:17.768Z,21.22
2018-08-17T17:22:48.100Z,21.14
2018-08-17T17:25:49.342Z,21.06
2018-08-17T17:28:18.543Z,21.06
2018-08-17T17:30:52.189Z,21.06
2018-08-17T17:33:21.263Z,21.13
2018-08-17T17:35:50.812Z,21.14
2018-08-17T17:38:19.680Z,21.20
2018-08-17T17:40:48.929Z,21.21
2018-08-17T17:43:18.014Z,21.19
2018-08-17T17:45:47.018Z,21.27
2018-08-17T17:48:17.285Z,21.77
2018-08-17T17:50:48.389Z,22.34
2018-08-17T17:53:18.976Z,22.85
2018-08-17T17:55:49.640Z,23.15
2018-08-17T17:58:19.761Z,23.26
2018-08-17T18:00:55.721Z,23.33
2018-08-17T18:03:27.244Z,23.37
2018-08-17T18:06:00.554Z,23.40
2018-08-17T18:08:30.929Z,23.37
2018-08-17T18:10:59.939Z,23.29
2018-08-17T18:13:29.012Z,23.25
2018-08-17T18:15:58.284Z,22.99
2018-08-17T18:18:27.091Z,22.68
2018-08-17T18:20:56.485Z,22.37
2018-08-17T18:23:25.365Z,22.07
2018-08-17T18:25:54.307Z,21.78
2018-08-17T18:28:23.118Z,21.57
2018-08-17T18:30:52.314Z,21.37
2018-08-17T18:33:21.106Z,21.16
2018-08-17T18:35:51.177Z,20.99
2018-08-17T18:38:20.039Z,20.90
2018-08-17T18:41:09.989Z,20.82
2018-08-17T18:43:38.779Z,20.73
2018-08-17T18:46:07.733Z,20.62
2018-08-17T18:48:37.203Z,20.55
2018-08-17T18:51:06.648Z,20.42
2018-08-17T18:53:36.244Z,20.30
2018-08-17T18:59:37.644Z,20.01
2018-08-17T19:02:07.480Z,19.89
2018-08-17T19:04:36.295Z,19.81
2018-08-17T19:07:05.564Z,19.74
2018-08-17T19:09:34.384Z,19.66
2018-08-17T19:12:03.295Z,19.56
2018-08-17T19:14:32.179Z,19.46
2018-08-17T19:17:01.002Z,19.37
2018-08-17T19:19:29.814Z,19.30
2018-08-17T19:21:58.607Z,19.21
2018-08-17T19:24:27.427Z,19.14
2018-08-17T19:26:56.619Z,19.04
2018-08-17T19:29:25.417Z,18.99
2018-08-17T19:31:59.436Z,18.93
2018-08-17T19:34:29.450Z,18.86
2018-08-17T19:36:58.774Z,18.80
2018-08-17T19:39:34.892Z,18.74
2018-08-17T19:42:03.984Z,18.70
2018-08-17T19:44:32.771Z,18.65
2018-08-17T19:47:02.727Z,18.60
2018-08-17T19:49:31.497Z,18.53
2018-08-17T19:52:01.223Z,18.48
2018-08-17T19:54:29.948Z,18.43
2018-08-17T19:56:59.407Z,18.36
2018-08-17T19:59:28.245Z,18.28
2018-08-17T20:01:57.676Z,18.20
2018-08-17T20:04:27.075Z,18.10
2018-08-17T20:06:55.938Z,18.01
2018-08-17T20:09:24.752Z,17.93
2018-08-17T20:11:53.626Z,17.88
2018-08-17T20:14:22.406Z,17.82
2018-08-17T20:16:51.293Z,17.76
2018-08-17T20:19:20.132Z,17.69
2018-08-17T20:21:49.317Z,17.63
2018-08-17T20:24:18.355Z,17.54
2018-08-17T20:26:47.887Z,17.49
2018-08-17T20:29:17.155Z,17.39
2018-08-17T20:31:46.070Z,17.35
2018-08-17T20:34:14.943Z,17.31
2018-08-17T20:36:45.045Z,17.27
2018-08-17T20:39:14.528Z,17.23
2018-08-17T20:41:43.312Z,17.16
2018-08-17T20:44:12.140Z,17.08
2018-08-17T20:46:41.509Z,17.02
2018-08-17T20:49:10.305Z,17.00
2018-08-17T20:51:45.389Z,16.94
2018-08-17T20:54:14.823Z,16.89
2018-08-17T20:57:20.983Z,16.85
2018-08-17T20:59:57.438Z,16.77
2018-08-17T21:02:34.178Z,16.72
2018-08-17T21:05:13.974Z,16.66
2018-08-17T21:39:57.422Z,15.90
2018-08-17T21:42:40.044Z,15.88
2018-08-17T21:45:11.037Z,15.84
2018-08-17T21:47:56.260Z,15.84
2018-08-17T21:50:30.830Z,15.82
2018-08-17T21:53:19.572Z,15.82
2018-08-17T21:55:57.416Z,15.80
2018-08-17T22:01:45.751Z,15.79
2018-08-17T22:07:21.756Z,15.77
2018-08-17T22:10:03.423Z,15.76
2018-08-17T22:12:37.388Z,15.74
2018-08-17T22:18:26.491Z,15.74
2018-08-17T22:20:55.752Z,15.72
2018-08-17T22:23:49.412Z,15.72
2018-08-17T22:26:19.556Z,15.69
2018-08-17T22:28:48.734Z,15.68
2018-08-17T22:31:29.200Z,15.67
2018-08-17T22:33:57.957Z,15.67
2018-08-17T22:36:27.463Z,15.65
2018-08-17T22:38:57.141Z,15.63
2018-08-17T22:41:25.894Z,15.63
2018-08-17T22:43:54.743Z,15.63
2018-08-17T22:46:25.257Z,15.61
2018-08-17T22:48:54.737Z,15.60
2018-08-17T22:51:24.179Z,15.60
2018-08-17T22:53:53.576Z,15.61
2018-08-17T22:56:22.837Z,15.63
2018-08-17T22:58:51.629Z,15.66
2018-08-17T23:01:21.600Z,15.68
2018-08-17T23:03:54.634Z,15.73
2018-08-17T23:06:25.147Z,15.75
2018-08-17T23:08:54.257Z,15.78
2018-08-17T23:11:30.932Z,15.79
2018-08-17T23:14:04.062Z,15.79
2018-08-17T23:16:32.865Z,15.81
2018-08-17T23:19:01.634Z,15.79
2018-08-17T23:21:30.473Z,15.77
2018-08-17T23:23:59.412Z,15.76
2018-08-17T23:26:28.169Z,15.75
2018-08-17T23:28:56.956Z,15.69
2018-08-17T23:31:25.760Z,15.65
2018-08-17T23:33:55.214Z,15.59
2018-08-17T23:36:24.618Z,15.54
2018-08-17T23:38:53.431Z,15.51
2018-08-17T23:41:22.223Z,15.49
2018-08-17T23:43:50.998Z,15.45
2018-08-17T23:46:20.484Z,15.43
2018-08-17T23:48:50.307Z,15.40
2018-08-17T23:51:20.775Z,15.37
2018-08-17T23:53:50.215Z,15.34
2018-08-17T23:56:19.880Z,15.32
2018-08-17T23:58:48.953Z,15.30
